sensor_id;sensor_type;location;lat;lon;timestamp;temperature;humidity
20366;DHT22;10341;49.894;8.822;2023-02-13T00:03:52;6.80;99.90
20366;DHT22;10341;49.894;8.822;2023-02-13T00:09:11;6.80;99.90
20366;DHT22;10341;49.894;8.822;2023-02-13T00:14:34;6.80;99.90
20366;DHT22;10341;49.894;8.822;2023-02-13T00:19:54;6.90;99.90
20366;DHT22;10341;49.894;8.822;2023-02-13T00:25:13;6.90;99.90
20366;DHT22;10341;49.894;8.822;2023-02-13T00:30:33;6.90;99.90
20366;DHT22;10341;49.894;8.822;2023-02-13T00:36:08;7.00;99.90
20366;DHT22;10341;49.894;8.822;2023-02-13T00:41:28;7.00;99.90
20366;DHT22;10341;49.894;8.822;2023-02-13T00:46:48;7.00;99.90
20366;DHT22;10341;49.894;8.822;2023-02-13T00:52:08;6.90;99.90
20366;DHT22;10341;49.894;8.822;2023-02-13T00:57:27;6.90;99.90
20366;DHT22;10341;49.894;8.822;2023-02-13T01:02:49;6.90;99.90
20366;DHT22;10341;49.894;8.822;2023-02-13T01:08:09;6.90;99.90
20366;DHT22;10341;49.894;8.822;2023-02-13T01:13:28;6.80;99.90
20366;DHT22;10341;49.894;8.822;2023-02-13T01:18:48;6.60;99.90
20366;DHT22;10341;49.894;8.822;2023-02-13T01:24:33;6.50;99.90
20366;DHT22;10341;49.894;8.822;2023-02-13T01:29:52;6.40;99.90
20366;DHT22;10341;49.894;8.822;2023-02-13T01:35:13;6.30;99.90
20366;DHT22;10341;49.894;8.822;2023-02-13T01:40:33;6.10;99.90
20366;DHT22;10341;49.894;8.822;2023-02-13T01:45:55;6.00;99.90
20366;DHT22;10341;49.894;8.822;2023-02-13T01:51:19;5.70;99.90
20366;DHT22;10341;49.894;8.822;2023-02-13T01:56:47;5.40;99.90
20366;DHT22;10341;49.894;8.822;2023-02-13T02:02:08;5.10;99.90
20366;DHT22;10341;49.894;8.822;2023-02-13T02:07:28;4.80;99.90
20366;DHT22;10341;49.894;8.822;2023-02-13T02:18:21;4.40;99.90
20366;DHT22;10341;49.894;8.822;2023-02-13T02:47:19;3.50;99.90
20366;DHT22;10341;49.894;8.822;2023-02-13T02:58:46;3.20;99.90
20366;DHT22;10341;49.894;8.822;2023-02-13T03:04:35;3.10;99.90
20366;DHT22;10341;49.894;8.822;2023-02-13T03:10:28;2.90;99.90
20366;DHT22;10341;49.894;8.822;2023-02-13T03:16:16;2.90;99.90
20366;DHT22;10341;49.894;8.822;2023-02-13T03:22:36;2.70;99.90
20366;DHT22;10341;49.894;8.822;2023-02-13T03:34:01;2.50;99.90
20366;DHT22;10341;49.894;8.822;2023-02-13T03:39:45;2.30;99.90
20366;DHT22;10341;49.894;8.822;2023-02-13T03:45:15;2.20;99.90
20366;DHT22;10341;49.894;8.822;2023-02-13T03:50:58;2.10;99.90
20366;DHT22;10341;49.894;8.822;2023-02-13T03:56:19;2.00;99.90
20366;DHT22;10341;49.894;8.822;2023-02-13T04:02:00;1.90;99.90
20366;DHT22;10341;49.894;8.822;2023-02-13T04:07:22;1.90;99.90
20366;DHT22;10341;49.894;8.822;2023-02-13T04:18:26;1.70;99.90
20366;DHT22;10341;49.894;8.822;2023-02-13T04:23:46;1.60;99.90
20366;DHT22;10341;49.894;8.822;2023-02-13T04:29:06;1.40;99.90
20366;DHT22;10341;49.894;8.822;2023-02-13T04:34:26;1.40;99.90
20366;DHT22;10341;49.894;8.822;2023-02-13T04:39:45;1.30;99.90
20366;DHT22;10341;49.894;8.822;2023-02-13T04:45:05;1.40;99.90
20366;DHT22;10341;49.894;8.822;2023-02-13T04:50:24;1.20;99.90
20366;DHT22;10341;49.894;8.822;2023-02-13T04:55:44;1.10;99.90
20366;DHT22;10341;49.894;8.822;2023-02-13T05:01:11;1.00;99.90
20366;DHT22;10341;49.894;8.822;2023-02-13T05:06:30;0.90;99.90
20366;DHT22;10341;49.894;8.822;2023-02-13T05:11:51;0.80;99.90
20366;DHT22;10341;49.894;8.822;2023-02-13T05:17:10;0.60;99.90
20366;DHT22;10341;49.894;8.822;2023-02-13T05:22:30;0.60;99.90
20366;DHT22;10341;49.894;8.822;2023-02-13T05:28:08;0.50;99.90
20366;DHT22;10341;49.894;8.822;2023-02-13T05:33:47;0.40;99.90
20366;DHT22;10341;49.894;8.822;2023-02-13T05:39:07;0.50;99.90
20366;DHT22;10341;49.894;8.822;2023-02-13T05:44:26;0.60;99.90
20366;DHT22;10341;49.894;8.822;2023-02-13T05:49:46;0.30;99.90
20366;DHT22;10341;49.894;8.822;2023-02-13T05:55:05;0.30;99.90
20366;DHT22;10341;49.894;8.822;2023-02-13T06:00:25;0.10;99.90
20366;DHT22;10341;49.894;8.822;2023-02-13T06:05:45;0.00;99.90
20366;DHT22;10341;49.894;8.822;2023-02-13T06:11:05;-0.10;99.90
20366;DHT22;10341;49.894;8.822;2023-02-13T06:16:24;-0.10;99.90
20366;DHT22;10341;49.894;8.822;2023-02-13T06:21:44;-0.10;99.90
20366;DHT22;10341;49.894;8.822;2023-02-13T06:27:03;-0.10;99.90
20366;DHT22;10341;49.894;8.822;2023-02-13T06:32:23;0.00;99.90
20366;DHT22;10341;49.894;8.822;2023-02-13T06:37:43;-0.10;99.90
20366;DHT22;10341;49.894;8.822;2023-02-13T06:43:02;0.00;99.90
20366;DHT22;10341;49.894;8.822;2023-02-13T06:48:22;0.10;99.90
20366;DHT22;10341;49.894;8.822;2023-02-13T06:53:42;0.00;99.90
20366;DHT22;10341;49.894;8.822;2023-02-13T06:59:01;0.00;99.90
20366;DHT22;10341;49.894;8.822;2023-02-13T07:04:20;0.00;99.90
20366;DHT22;10341;49.894;8.822;2023-02-13T07:09:40;0.00;99.90
20366;DHT22;10341;49.894;8.822;2023-02-13T07:14:59;0.20;99.90
20366;DHT22;10341;49.894;8.822;2023-02-13T07:20:19;0.50;99.90
20366;DHT22;10341;49.894;8.822;2023-02-13T07:25:38;1.00;99.90
20366;DHT22;10341;49.894;8.822;2023-02-13T07:31:04;1.60;99.90
20366;DHT22;10341;49.894;8.822;2023-02-13T07:36:23;2.00;99.90
20366;DHT22;10341;49.894;8.822;2023-02-13T07:41:43;2.40;99.90
20366;DHT22;10341;49.894;8.822;2023-02-13T07:47:03;3.10;99.90
20366;DHT22;10341;49.894;8.822;2023-02-13T07:52:22;4.00;99.90
20366;DHT22;10341;49.894;8.822;2023-02-13T07:57:41;4.90;99.90
20366;DHT22;10341;49.894;8.822;2023-02-13T08:03:01;6.10;99.90
20366;DHT22;10341;49.894;8.822;2023-02-13T08:08:20;7.00;99.90
20366;DHT22;10341;49.894;8.822;2023-02-13T08:13:40;8.10;99.90
20366;DHT22;10341;49.894;8.822;2023-02-13T08:19:00;8.20;99.90
20366;DHT22;10341;49.894;8.822;2023-02-13T08:24:20;8.90;99.90
20366;DHT22;10341;49.894;8.822;2023-02-13T08:29:40;10.20;99.90
20366;DHT22;10341;49.894;8.822;2023-02-13T08:34:59;10.70;99.90
20366;DHT22;10341;49.894;8.822;2023-02-13T08:40:18;11.30;99.90
20366;DHT22;10341;49.894;8.822;2023-02-13T08:45:38;11.60;99.90
20366;DHT22;10341;49.894;8.822;2023-02-13T08:50:58;12.20;99.90
20366;DHT22;10341;49.894;8.822;2023-02-13T08:56:17;13.30;99.90
20366;DHT22;10341;49.894;8.822;2023-02-13T09:01:37;14.60;99.90
20366;DHT22;10341;49.894;8.822;2023-02-13T09:06:56;16.50;99.90
20366;DHT22;10341;49.894;8.822;2023-02-13T09:12:15;16.60;98.20
20366;DHT22;10341;49.894;8.822;2023-02-13T09:17:35;16.70;98.90
20366;DHT22;10341;49.894;8.822;2023-02-13T09:22:54;15.30;99.90
20366;DHT22;10341;49.894;8.822;2023-02-13T09:28:14;16.70;98.70
20366;DHT22;10341;49.894;8.822;2023-02-13T09:33:35;17.00;98.70
20366;DHT22;10341;49.894;8.822;2023-02-13T09:38:56;17.30;97.50
20366;DHT22;10341;49.894;8.822;2023-02-13T09:49:55;16.30;98.40
20366;DHT22;10341;49.894;8.822;2023-02-13T09:55:16;15.50;99.00
20366;DHT22;10341;49.894;8.822;2023-02-13T10:00:41;16.10;98.90
20366;DHT22;10341;49.894;8.822;2023-02-13T10:06:09;16.70;97.60
20366;DHT22;10341;49.894;8.822;2023-02-13T10:17:37;16.30;97.70
20366;DHT22;10341;49.894;8.822;2023-02-13T10:22:59;17.30;97.20
20366;DHT22;10341;49.894;8.822;2023-02-13T10:28:33;19.30;94.80
20366;DHT22;10341;49.894;8.822;2023-02-13T10:33:59;19.50;93.40
20366;DHT22;10341;49.894;8.822;2023-02-13T10:39:26;19.30;92.20
20366;DHT22;10341;49.894;8.822;2023-02-13T11:07:08;20.40;90.90
20366;DHT22;10341;49.894;8.822;2023-02-13T11:12:31;21.00;90.70
20366;DHT22;10341;49.894;8.822;2023-02-13T11:17:52;23.00;87.20
20366;DHT22;10341;49.894;8.822;2023-02-13T11:34:33;22.90;81.50
20366;DHT22;10341;49.894;8.822;2023-02-13T11:39:55;22.50;84.80
20366;DHT22;10341;49.894;8.822;2023-02-13T11:45:21;23.10;80.80
20366;DHT22;10341;49.894;8.822;2023-02-13T11:50:41;23.70;79.00
20366;DHT22;10341;49.894;8.822;2023-02-13T12:01:28;24.60;75.50
20366;DHT22;10341;49.894;8.822;2023-02-13T12:12:38;24.80;71.30
20366;DHT22;10341;49.894;8.822;2023-02-13T12:18:14;24.40;73.60
20366;DHT22;10341;49.894;8.822;2023-02-13T12:29:29;24.90;70.90
20366;DHT22;10341;49.894;8.822;2023-02-13T12:41:06;24.20;70.30
20366;DHT22;10341;49.894;8.822;2023-02-13T13:03:22;21.50;75.70
20366;DHT22;10341;49.894;8.822;2023-02-13T13:09:16;20.20;76.00
20366;DHT22;10341;49.894;8.822;2023-02-13T13:14:42;19.80;79.50
20366;DHT22;10341;49.894;8.822;2023-02-13T13:25:56;20.20;79.40
20366;DHT22;10341;49.894;8.822;2023-02-13T13:31:19;19.60;80.60
20366;DHT22;10341;49.894;8.822;2023-02-13T13:36:59;19.40;79.50
20366;DHT22;10341;49.894;8.822;2023-02-13T13:42:30;17.70;84.70
20366;DHT22;10341;49.894;8.822;2023-02-13T13:53:18;16.50;89.30
20366;DHT22;10341;49.894;8.822;2023-02-13T13:58:44;15.60;90.80
20366;DHT22;10341;49.894;8.822;2023-02-13T14:09:52;14.00;93.90
20366;DHT22;10341;49.894;8.822;2023-02-13T14:21:01;13.10;97.00
20366;DHT22;10341;49.894;8.822;2023-02-13T14:26:32;13.00;97.40
20366;DHT22;10341;49.894;8.822;2023-02-13T14:32:21;12.70;98.60
20366;DHT22;10341;49.894;8.822;2023-02-13T14:37:53;12.60;99.20
20366;DHT22;10341;49.894;8.822;2023-02-13T14:49:13;12.20;99.90
20366;DHT22;10341;49.894;8.822;2023-02-13T14:54:33;12.10;99.90
20366;DHT22;10341;49.894;8.822;2023-02-13T14:59:58;11.90;99.90
20366;DHT22;10341;49.894;8.822;2023-02-13T15:05:19;11.80;99.90
20366;DHT22;10341;49.894;8.822;2023-02-13T15:10:47;11.70;99.90
20366;DHT22;10341;49.894;8.822;2023-02-13T15:16:10;11.60;99.90
20366;DHT22;10341;49.894;8.822;2023-02-13T15:21:31;11.50;99.90
20366;DHT22;10341;49.894;8.822;2023-02-13T15:27:00;11.30;99.90
20366;DHT22;10341;49.894;8.822;2023-02-13T15:32:29;11.20;99.90
20366;DHT22;10341;49.894;8.822;2023-02-13T15:37:48;11.10;99.90
20366;DHT22;10341;49.894;8.822;2023-02-13T15:43:21;11.00;99.90
20366;DHT22;10341;49.894;8.822;2023-02-13T15:48:42;10.90;99.90
20366;DHT22;10341;49.894;8.822;2023-02-13T15:54:20;10.80;99.90
20366;DHT22;10341;49.894;8.822;2023-02-13T15:59:40;10.60;99.90
20366;DHT22;10341;49.894;8.822;2023-02-13T16:05:00;10.40;99.90
20366;DHT22;10341;49.894;8.822;2023-02-13T16:10:28;10.40;99.90
20366;DHT22;10341;49.894;8.822;2023-02-13T16:15:48;10.20;99.90
20366;DHT22;10341;49.894;8.822;2023-02-13T16:21:08;10.10;99.90
20366;DHT22;10341;49.894;8.822;2023-02-13T16:26:28;10.00;99.90
20366;DHT22;10341;49.894;8.822;2023-02-13T16:31:49;9.70;99.90
20366;DHT22;10341;49.894;8.822;2023-02-13T16:37:25;9.40;99.90
20366;DHT22;10341;49.894;8.822;2023-02-13T16:42:45;9.10;99.90
20366;DHT22;10341;49.894;8.822;2023-02-13T16:48:04;8.90;99.90
20366;DHT22;10341;49.894;8.822;2023-02-13T16:53:23;8.60;99.90
20366;DHT22;10341;49.894;8.822;2023-02-13T16:58:43;8.40;99.90
20366;DHT22;10341;49.894;8.822;2023-02-13T17:04:18;8.20;99.90
20366;DHT22;10341;49.894;8.822;2023-02-13T17:09:39;7.90;99.90
20366;DHT22;10341;49.894;8.822;2023-02-13T17:14:58;7.70;99.90
20366;DHT22;10341;49.894;8.822;2023-02-13T17:20:20;7.50;99.90
20366;DHT22;10341;49.894;8.822;2023-02-13T17:25:39;7.60;99.90
20366;DHT22;10341;49.894;8.822;2023-02-13T17:30:59;7.60;99.90
20366;DHT22;10341;49.894;8.822;2023-02-13T17:36:19;7.60;99.90
20366;DHT22;10341;49.894;8.822;2023-02-13T17:41:38;7.50;99.90
20366;DHT22;10341;49.894;8.822;2023-02-13T17:47:00;7.40;99.90
20366;DHT22;10341;49.894;8.822;2023-02-13T17:52:23;7.20;99.90
20366;DHT22;10341;49.894;8.822;2023-02-13T17:57:43;6.90;99.90
20366;DHT22;10341;49.894;8.822;2023-02-13T18:03:03;6.40;99.90
20366;DHT22;10341;49.894;8.822;2023-02-13T18:08:23;6.10;99.90
20366;DHT22;10341;49.894;8.822;2023-02-13T18:13:42;5.80;99.90
20366;DHT22;10341;49.894;8.822;2023-02-13T18:19:06;5.60;99.90
20366;DHT22;10341;49.894;8.822;2023-02-13T18:24:29;5.30;99.90
20366;DHT22;10341;49.894;8.822;2023-02-13T18:29:49;5.10;99.90
20366;DHT22;10341;49.894;8.822;2023-02-13T18:35:09;4.90;99.90
20366;DHT22;10341;49.894;8.822;2023-02-13T18:40:29;4.70;99.90
20366;DHT22;10341;49.894;8.822;2023-02-13T18:45:49;4.50;99.90
20366;DHT22;10341;49.894;8.822;2023-02-13T18:51:08;4.30;99.90
20366;DHT22;10341;49.894;8.822;2023-02-13T18:56:28;4.30;99.90
20366;DHT22;10341;49.894;8.822;2023-02-13T19:01:48;4.10;99.90
20366;DHT22;10341;49.894;8.822;2023-02-13T19:07:08;4.00;99.90
20366;DHT22;10341;49.894;8.822;2023-02-13T19:12:28;3.90;99.90
20366;DHT22;10341;49.894;8.822;2023-02-13T19:17:48;3.90;99.90
20366;DHT22;10341;49.894;8.822;2023-02-13T19:23:08;3.80;99.90
20366;DHT22;10341;49.894;8.822;2023-02-13T19:28:27;3.80;99.90
20366;DHT22;10341;49.894;8.822;2023-02-13T19:33:48;3.60;99.90
20366;DHT22;10341;49.894;8.822;2023-02-13T19:39:07;3.40;99.90
20366;DHT22;10341;49.894;8.822;2023-02-13T19:44:27;3.20;99.90
20366;DHT22;10341;49.894;8.822;2023-02-13T19:49:47;3.10;99.90
20366;DHT22;10341;49.894;8.822;2023-02-13T19:55:08;3.00;99.90
20366;DHT22;10341;49.894;8.822;2023-02-13T20:00:28;2.90;99.90
20366;DHT22;10341;49.894;8.822;2023-02-13T20:05:48;2.50;99.90
20366;DHT22;10341;49.894;8.822;2023-02-13T20:11:08;2.70;99.90
20366;DHT22;10341;49.894;8.822;2023-02-13T20:16:28;2.50;99.90
20366;DHT22;10341;49.894;8.822;2023-02-13T20:21:53;2.40;99.90
20366;DHT22;10341;49.894;8.822;2023-02-13T20:27:13;2.30;99.90
20366;DHT22;10341;49.894;8.822;2023-02-13T20:32:33;2.20;99.90
20366;DHT22;10341;49.894;8.822;2023-02-13T20:37:52;2.10;99.90
20366;DHT22;10341;49.894;8.822;2023-02-13T20:43:11;1.90;99.90
20366;DHT22;10341;49.894;8.822;2023-02-13T20:48:33;1.90;99.90
20366;DHT22;10341;49.894;8.822;2023-02-13T20:53:53;2.00;99.90
20366;DHT22;10341;49.894;8.822;2023-02-13T20:59:12;1.80;99.90
20366;DHT22;10341;49.894;8.822;2023-02-13T21:04:32;1.70;99.90
20366;DHT22;10341;49.894;8.822;2023-02-13T21:09:52;1.60;99.90
20366;DHT22;10341;49.894;8.822;2023-02-13T21:15:11;1.50;99.90
20366;DHT22;10341;49.894;8.822;2023-02-13T21:20:31;1.30;99.90
20366;DHT22;10341;49.894;8.822;2023-02-13T21:25:50;1.20;99.90
20366;DHT22;10341;49.894;8.822;2023-02-13T21:31:24;1.10;99.90
20366;DHT22;10341;49.894;8.822;2023-02-13T21:36:46;1.10;99.90
20366;DHT22;10341;49.894;8.822;2023-02-13T21:42:05;1.10;99.90
20366;DHT22;10341;49.894;8.822;2023-02-13T21:47:25;1.00;99.90
20366;DHT22;10341;49.894;8.822;2023-02-13T21:52:44;0.80;99.90
20366;DHT22;10341;49.894;8.822;2023-02-13T21:58:03;0.80;99.90
20366;DHT22;10341;49.894;8.822;2023-02-13T22:03:22;0.70;99.90
20366;DHT22;10341;49.894;8.822;2023-02-13T22:08:42;0.70;99.90
20366;DHT22;10341;49.894;8.822;2023-02-13T22:14:03;0.60;99.90
20366;DHT22;10341;49.894;8.822;2023-02-13T22:19:23;0.50;99.90
20366;DHT22;10341;49.894;8.822;2023-02-13T22:24:42;0.40;99.90
20366;DHT22;10341;49.894;8.822;2023-02-13T22:30:03;0.40;99.90
20366;DHT22;10341;49.894;8.822;2023-02-13T22:35:23;0.30;99.90
20366;DHT22;10341;49.894;8.822;2023-02-13T22:40:42;0.30;99.90
20366;DHT22;10341;49.894;8.822;2023-02-13T22:46:14;0.30;99.90
20366;DHT22;10341;49.894;8.822;2023-02-13T22:51:35;0.20;99.90
20366;DHT22;10341;49.894;8.822;2023-02-13T22:56:54;0.10;99.90
20366;DHT22;10341;49.894;8.822;2023-02-13T23:02:13;0.00;99.90
20366;DHT22;10341;49.894;8.822;2023-02-13T23:07:34;0.00;99.90
20366;DHT22;10341;49.894;8.822;2023-02-13T23:12:53;-0.10;99.90
20366;DHT22;10341;49.894;8.822;2023-02-13T23:18:13;-0.10;99.90
20366;DHT22;10341;49.894;8.822;2023-02-13T23:23:36;-0.20;99.90
20366;DHT22;10341;49.894;8.822;2023-02-13T23:28:58;-0.20;99.90
20366;DHT22;10341;49.894;8.822;2023-02-13T23:34:18;-0.30;99.90
20366;DHT22;10341;49.894;8.822;2023-02-13T23:39:37;-0.40;99.90
20366;DHT22;10341;49.894;8.822;2023-02-13T23:44:57;-0.40;99.90
20366;DHT22;10341;49.894;8.822;2023-02-13T23:50:16;-0.50;99.90
20366;DHT22;10341;49.894;8.822;2023-02-13T23:55:35;-0.50;99.90
